Time;durP1;ratioP1;P1;durP2;ratioP2;P2;SDS_P1;SDS_P2;PMS_P1;PMS_P2;Temp;Humidity;BMP_temperature;BMP_pressure;BME280_temperature;BME280_humidity;BME280_pressure;Samples;Min_cycle;Max_cycle;Signal;HPM_P1;HPM_P2
2022/10/17 00:01:03;;;;;;;10.30;7.57;;;;;;;13.74;100.00;101489.41;5274149;28;20673;-74
2022/10/17 00:03:36;;;;;;;9.17;7.30;;;;;;;13.87;100.00;101478.97;5261039;28;20024;-73
2022/10/17 00:06:11;;;;;;;11.10;7.40;;;;;;;13.85;100.00;101480.84;5260616;28;20060;-74
2022/10/17 00:08:43;;;;;;;10.67;7.57;;;;;;;13.87;100.00;101483.38;5277993;28;20076;-74
2022/10/17 00:11:21;;;;;;;8.93;7.50;;;;;;;13.94;100.00;101486.47;5260561;28;20151;-74
2022/10/17 00:13:54;;;;;;;8.87;7.57;;;;;;;13.92;100.00;101486.56;5277618;28;20075;-73
2022/10/17 00:16:32;;;;;;;10.27;6.93;;;;;;;13.92;100.00;101486.56;5278726;28;20016;-73
2022/10/17 00:19:05;;;;;;;11.37;7.00;;;;;;;13.91;100.00;101482.25;5260683;28;20526;-73
2022/10/17 00:21:37;;;;;;;9.23;8.33;;;;;;;13.85;100.00;101470.31;5278225;28;20379;-73
2022/10/17 00:24:08;;;;;;;8.13;7.43;;;;;;;13.88;100.00;101475.38;5278343;28;20033;-73
2022/10/17 00:26:39;;;;;;;13.13;7.10;;;;;;;13.87;100.00;101457.06;5280956;28;20029;-73
2022/10/17 00:29:11;;;;;;;7.63;6.87;;;;;;;14.01;100.00;101469.34;5276993;28;20078;-73
2022/10/17 00:31:42;;;;;;;11.03;8.43;;;;;;;13.99;100.00;101474.69;5278683;28;20108;-74
2022/10/17 00:34:13;;;;;;;12.13;7.90;;;;;;;13.90;100.00;101462.13;5278052;28;20028;-74
2022/10/17 00:36:44;;;;;;;8.77;7.87;;;;;;;13.98;100.00;101457.19;5278271;28;20188;-74
2022/10/17 00:39:16;;;;;;;10.10;8.53;;;;;;;13.88;100.00;101458.72;5278498;28;20669;-73
2022/10/17 00:41:47;;;;;;;11.57;8.50;;;;;;;13.98;100.00;101457.19;5277801;28;20457;-74
2022/10/17 00:44:27;;;;;;;11.87;9.13;;;;;;;13.99;100.00;101465.94;5277270;28;20036;-74
2022/10/17 00:47:07;;;;;;;11.90;8.43;;;;;;;14.01;100.00;101464.06;5277661;28;20032;-73
2022/10/17 00:49:39;;;;;;;8.87;7.97;;;;;;;13.93;100.00;101456.66;5278197;28;20069;-74
2022/10/17 00:52:16;;;;;;;9.73;8.70;;;;;;;13.98;100.00;101454.56;5293475;28;20115;-73
2022/10/17 00:54:57;;;;;;;9.57;8.60;;;;;;;14.02;100.00;101461.31;5259940;28;20488;-73
2022/10/17 00:57:31;;;;;;;9.47;8.53;;;;;;;14.02;100.00;101463.09;5259921;28;20024;-73
2022/10/17 01:00:07;;;;;;;9.15;7.82;;;;;;;14.01;100.00;101459.66;5277398;28;20191;-74
2022/10/17 01:02:38;;;;;;;10.93;8.37;;;;;;;13.91;100.00;101458.56;5277280;28;20021;-73
2022/10/17 01:05:10;;;;;;;9.27;8.40;;;;;;;13.98;100.00;101456.38;5277574;28;20031;-73
2022/10/17 01:07:43;;;;;;;11.77;8.77;;;;;;;13.93;100.00;101461.91;5277245;28;20714;-74
2022/10/17 01:10:14;;;;;;;10.67;9.37;;;;;;;13.86;100.00;101450.09;5277508;28;20068;-73
2022/10/17 01:13:15;;;;;;;10.03;8.90;;;;;;;13.99;100.00;101471.22;5276885;28;20071;-74
2022/10/17 01:15:49;;;;;;;11.97;8.67;;;;;;;14.03;100.00;101464.81;5276025;28;20033;-74
2022/10/17 01:18:50;;;;;;;10.10;8.48;;;;;;;13.96;100.00;101461.75;5278038;28;20017;-74
2022/10/17 01:21:32;;;;;;;10.33;8.80;;;;;;;13.94;100.00;101460.97;5277281;28;20351;-73
2022/10/17 01:24:28;;;;;;;12.67;9.77;;;;;;;13.84;100.00;101446.72;5277671;28;20028;-74
2022/10/17 01:27:24;;;;;;;17.53;9.67;;;;;;;13.97;100.00;101458.16;5262581;28;20024;-74
2022/10/17 01:30:14;;;;;;;12.23;9.77;;;;;;;14.05;100.00;101456.81;5276080;28;20471;-74
2022/10/17 01:32:55;;;;;;;10.33;9.23;;;;;;;14.05;100.00;101456.81;5258777;28;20032;-74
2022/10/17 01:35:41;;;;;;;11.90;10.00;;;;;;;14.14;100.00;101453.56;5277243;28;20542;-73
2022/10/17 01:38:38;;;;;;;12.20;9.77;;;;;;;14.17;100.00;101452.53;5276342;28;20016;-74
2022/10/17 01:41:31;;;;;;;11.70;9.10;;;;;;;14.21;100.00;101451.38;5276411;28;20449;-73
2022/10/17 01:44:08;;;;;;;11.63;10.23;;;;;;;14.20;100.00;101447.06;5277033;28;20033;-74
2022/10/17 01:46:45;;;;;;;12.60;9.67;;;;;;;14.24;100.00;101444.09;5261757;28;20163;-74
2022/10/17 01:49:21;;;;;;;9.73;8.77;;;;;;;14.27;100.00;101443.94;5277172;28;20040;-74
2022/10/17 01:52:05;;;;;;;10.77;8.60;;;;;;;14.19;100.00;101435.66;5259357;28;20052;-74
2022/10/17 01:54:43;;;;;;;13.63;9.20;;;;;;;14.23;100.00;101442.44;5275917;28;20025;-74
2022/10/17 01:57:29;;;;;;;15.43;9.77;;;;;;;14.21;100.00;101451.38;5258584;28;20032;-73
2022/10/17 02:00:07;;;;;;;10.60;8.77;;;;;;;14.24;100.00;101457.28;5257438;28;20471;-73
2022/10/17 02:02:42;;;;;;;13.20;9.30;;;;;;;14.17;100.00;101440.22;5276617;28;20398;-74
2022/10/17 02:05:18;;;;;;;11.60;8.87;;;;;;;14.21;100.00;101449.59;5258379;28;20021;-74
2022/10/17 02:07:49;;;;;;;10.47;9.27;;;;;;;14.19;100.00;101432.19;5276157;28;20039;-74
2022/10/17 02:10:31;;;;;;;11.53;9.37;;;;;;;14.22;100.00;101434.63;5276176;28;20048;-73
2022/10/17 02:13:17;;;;;;;16.40;8.93;;;;;;;14.21;100.00;101419.75;5276493;28;20448;-73
2022/10/17 02:16:08;;;;;;;11.07;9.87;;;;;;;14.17;100.00;101415.66;5258055;28;20040;-73
2022/10/17 02:18:58;;;;;;;10.50;9.10;;;;;;;14.23;100.00;101421.34;5276022;28;20463;-74
2022/10/17 02:21:47;;;;;;;13.10;8.70;;;;;;;14.23;100.00;101416.09;5276310;28;20440;-73
2022/10/17 02:24:39;;;;;;;11.23;9.20;;;;;;;14.23;100.00;101421.34;5275355;28;20097;-74
2022/10/17 02:27:24;;;;;;;13.50;9.10;;;;;;;14.25;100.00;101429.16;5257967;28;20086;-74
2022/10/17 02:30:01;;;;;;;13.80;9.13;;;;;;;14.13;100.00;101423.75;5274473;28;20032;-74
2022/10/17 02:32:39;;;;;;;12.43;8.40;;;;;;;14.27;100.00;101417.59;5257846;28;20121;-73
2022/10/17 02:35:14;;;;;;;11.53;8.77;;;;;;;14.28;100.00;101421.88;5275048;28;20027;-73
2022/10/17 02:37:46;;;;;;;12.53;8.90;;;;;;;14.26;100.00;101423.78;5257580;28;20586;-74
2022/10/17 02:40:21;;;;;;;13.87;8.83;;;;;;;14.30;100.00;101419.16;5275411;28;20035;-74
2022/10/17 02:42:54;;;;;;;12.07;9.60;;;;;;;14.26;100.00;101422.97;5276034;28;20025;-73
2022/10/17 02:45:28;;;;;;;12.50;9.10;;;;;;;14.35;100.00;101432.00;5275224;28;20035;-74
2022/10/17 02:48:07;;;;;;;10.27;9.10;;;;;;;14.32;100.00;101419.91;5277130;28;20103;-74
2022/10/17 02:51:02;;;;;;;13.87;9.70;;;;;;;14.35;100.00;101424.09;5275914;28;20494;-73
2022/10/17 02:53:42;;;;;;;14.02;9.65;;;;;;;14.32;100.00;101419.03;5275182;28;20028;-73
2022/10/17 02:56:17;;;;;;;13.07;9.57;;;;;;;14.32;100.00;101427.81;5275058;28;20025;-74
2022/10/17 02:58:57;;;;;;;10.40;9.30;;;;;;;14.34;100.00;101423.28;5274221;28;20031;-74
2022/10/17 03:01:29;;;;;;;10.03;8.80;;;;;;;14.32;100.00;101422.53;5275524;28;20023;-73
2022/10/17 03:04:19;;;;;;;13.53;8.43;;;;;;;14.31;100.00;101420.84;5275329;28;20035;-74
2022/10/17 03:06:50;;;;;;;11.20;9.13;;;;;;;14.27;100.00;101417.59;5275338;28;20028;-74
2022/10/17 03:09:22;;;;;;;33.13;10.27;;;;;;;14.30;100.00;101426.19;5259303;28;20116;-74
2022/10/17 03:11:53;;;;;;;9.87;8.70;;;;;;;14.27;100.00;101414.94;5275105;28;20552;-74
2022/10/17 03:14:24;;;;;;;11.77;10.40;;;;;;;14.31;100.00;101415.59;5274777;28;20047;-74
2022/10/17 03:16:55;;;;;;;10.80;8.50;;;;;;;14.31;100.00;101422.63;5290205;28;20029;-74
2022/10/17 03:19:27;;;;;;;10.97;9.27;;;;;;;14.23;100.00;101410.81;5275621;28;20032;-74
2022/10/17 03:21:58;;;;;;;13.27;9.93;;;;;;;14.33;100.00;101426.03;5274863;28;20028;-74
2022/10/17 03:24:29;;;;;;;11.20;9.47;;;;;;;14.28;100.00;101424.53;5276010;28;20028;-74
2022/10/17 03:27:00;;;;;;;10.17;9.10;;;;;;;14.32;100.00;101424.31;5275265;28;20024;-74
2022/10/17 03:29:32;;;;;;;9.93;8.93;;;;;;;14.34;100.00;101432.97;5257007;28;20028;-74
2022/10/17 03:32:03;;;;;;;11.53;9.90;;;;;;;14.24;100.00;101416.94;5275545;28;20093;-73
2022/10/17 03:34:34;;;;;;;12.57;8.77;;;;;;;14.31;100.00;101418.22;5257652;28;20047;-73
2022/10/17 03:37:06;;;;;;;12.07;9.57;;;;;;;14.30;100.00;101408.63;5277369;28;20064;-74
2022/10/17 03:39:37;;;;;;;11.37;8.80;;;;;;;14.36;100.00;101428.44;5279999;28;20055;-74
2022/10/17 03:42:08;;;;;;;12.70;8.90;;;;;;;14.33;100.00;101420.75;5279281;28;20107;-73
2022/10/17 03:44:40;;;;;;;10.87;9.43;;;;;;;14.39;100.00;101417.69;5279120;28;20063;-73
2022/10/17 03:47:11;;;;;;;11.60;8.83;;;;;;;14.40;100.00;101419.38;5278983;28;20040;-74
2022/10/17 03:49:42;;;;;;;10.13;8.10;;;;;;;14.38;100.00;101406.31;5261249;28;20024;-74
2022/10/17 03:52:14;;;;;;;12.20;9.13;;;;;;;14.41;100.00;101405.25;5278864;28;20028;-74
2022/10/17 03:54:45;;;;;;;14.13;9.87;;;;;;;14.38;100.00;101402.84;5278910;28;20032;-74
2022/10/17 03:57:17;;;;;;;13.43;9.33;;;;;;;14.40;100.00;101401.78;5261846;28;20507;-74
2022/10/17 03:59:51;;;;;;;11.13;9.37;;;;;;;14.42;100.00;101414.84;5281401;28;20024;-73
2022/10/17 04:02:22;;;;;;;11.60;9.03;;;;;;;14.42;100.00;101417.47;5278551;28;20032;-74
2022/10/17 04:04:53;;;;;;;12.57;9.90;;;;;;;14.46;100.00;101432.16;5278345;28;20502;-73
2022/10/17 04:07:25;;;;;;;12.33;9.37;;;;;;;14.51;100.00;101431.84;5278307;28;20032;-74
2022/10/17 04:09:56;;;;;;;11.70;10.30;;;;;;;14.51;100.00;101437.97;5260917;28;20093;-74
2022/10/17 04:12:27;;;;;;;11.60;8.93;;;;;;;14.50;100.00;101433.63;5278927;28;20067;-74
2022/10/17 04:14:58;;;;;;;12.10;8.13;;;;;;;14.52;100.00;101429.09;5277604;28;20034;-74
2022/10/17 04:17:30;;;;;;;14.43;8.60;;;;;;;14.54;100.00;101434.25;5278110;28;20027;-74
2022/10/17 04:20:02;;;;;;;10.90;9.17;;;;;;;14.55;100.00;101443.88;5278700;28;20527;-74
2022/10/17 04:22:33;;;;;;;14.17;8.37;;;;;;;14.58;100.00;101432.25;5260638;28;20052;-73
2022/10/17 04:25:05;;;;;;;12.50;8.00;;;;;;;14.60;100.00;101433.84;5278419;28;20505;-74
2022/10/17 04:27:36;;;;;;;10.80;8.03;;;;;;;14.62;100.00;101447.78;5294077;28;20490;-74
2022/10/17 04:30:08;;;;;;;13.37;8.60;;;;;;;14.61;100.00;101447.84;5259162;28;20119;-73
2022/10/17 04:32:39;;;;;;;14.13;8.23;;;;;;;14.60;100.00;101448.81;5278615;28;20324;-74
2022/10/17 04:35:11;;;;;;;9.83;8.07;;;;;;;14.60;100.00;101449.66;5260086;28;20024;-74
2022/10/17 04:37:42;;;;;;;14.80;7.40;;;;;;;14.62;100.00;101453.06;5278695;28;20028;-74
2022/10/17 04:40:13;;;;;;;12.53;7.73;;;;;;;14.61;100.00;101458.41;5282220;28;20093;-74
2022/10/17 04:42:45;;;;;;;9.17;7.93;;;;;;;14.57;100.00;101462.22;5277878;28;20515;-74
2022/10/17 04:45:16;;;;;;;13.80;8.13;;;;;;;14.53;100.00;101474.75;5277334;28;20035;-74
2022/10/17 04:47:47;;;;;;;11.40;7.77;;;;;;;14.59;100.00;101465.59;5277638;28;20025;-74
2022/10/17 04:50:18;;;;;;;11.83;7.53;;;;;;;14.57;100.00;101455.16;5278167;28;20834;-73
2022/10/17 04:52:50;;;;;;;10.23;8.10;;;;;;;14.49;100.00;101463.56;5277054;28;20042;-73
2022/10/17 04:55:21;;;;;;;15.03;9.20;;;;;;;14.52;100.00;101487.06;5260121;28;20024;-74
2022/10/17 04:57:53;;;;;;;9.90;7.77;;;;;;;14.59;100.00;101486.69;5276811;28;20106;-74
2022/10/17 05:00:24;;;;;;;14.20;8.40;;;;;;;14.52;100.00;101479.16;5277342;28;20514;-74
2022/10/17 05:02:55;;;;;;;10.10;8.03;;;;;;;14.49;100.00;101483.78;5277699;28;20032;-74
2022/10/17 05:05:27;;;;;;;13.20;7.70;;;;;;;14.45;100.00;101488.44;5277355;28;20032;-73
2022/10/17 05:07:58;;;;;;;13.77;6.97;;;;;;;14.50;100.00;101475.78;5259624;28;20028;-74
2022/10/17 05:10:29;;;;;;;14.30;7.93;;;;;;;14.51;100.00;101480.13;5277417;28;20111;-73
2022/10/17 05:13:01;;;;;;;9.87;7.63;;;;;;;14.55;100.00;101464.97;5276702;28;20033;-74
2022/10/17 05:15:32;;;;;;;12.13;8.10;;;;;;;14.62;100.00;101475.94;5277789;28;20025;-74
2022/10/17 05:18:04;;;;;;;8.80;7.00;;;;;;;14.61;100.00;101477.72;5277061;28;20020;-74
2022/10/17 05:20:36;;;;;;;9.60;7.13;;;;;;;14.60;100.00;101480.44;5277204;28;20028;-73
2022/10/17 05:23:07;;;;;;;7.73;6.93;;;;;;;14.72;100.00;101487.53;5276551;28;20093;-74
2022/10/17 05:25:38;;;;;;;10.50;7.13;;;;;;;14.66;100.00;101487.94;5277331;28;20024;-73
2022/10/17 05:28:10;;;;;;;10.73;7.53;;;;;;;14.73;100.00;101497.13;5258412;28;20074;-74
2022/10/17 05:30:41;;;;;;;11.00;8.23;;;;;;;14.70;100.00;101488.56;5277079;28;20035;-74
2022/10/17 05:33:12;;;;;;;9.93;7.70;;;;;;;14.70;100.00;101492.06;5276729;28;20482;-72
2022/10/17 05:35:43;;;;;;;9.57;7.60;;;;;;;14.81;100.00;101503.72;5276689;28;20059;-73
2022/10/17 05:38:15;;;;;;;10.77;7.00;;;;;;;14.78;100.00;101507.38;5277223;28;20471;-72
2022/10/17 05:40:46;;;;;;;8.70;7.70;;;;;;;14.84;100.00;101498.22;5276160;28;20386;-72
2022/10/17 05:43:17;;;;;;;9.63;6.77;;;;;;;14.87;100.00;101508.59;5275149;28;20441;-73
2022/10/17 05:45:49;;;;;;;9.73;6.90;;;;;;;14.88;100.00;101512.91;5275204;28;20040;-73
2022/10/17 05:48:21;;;;;;;10.33;7.00;;;;;;;14.90;100.00;101518.06;5257834;28;20033;-73
2022/10/17 05:51:00;;;;;;;12.53;6.60;;;;;;;14.93;100.00;101516.06;5264914;28;20028;-73
2022/10/17 05:53:34;;;;;;;10.80;7.53;;;;;;;14.88;100.00;101521.66;5272196;28;20035;-73
2022/10/17 05:56:08;;;;;;;11.93;7.50;;;;;;;14.98;100.00;101513.13;5275156;28;20024;-73
2022/10/17 05:58:44;;;;;;;;;;;;;;;14.98;100.00;101513.97;5256005;28;20028;-73
2022/10/17 06:01:15;;;;;;;10.27;6.90;;;;;;;14.92;100.00;101505.63;5258575;28;19912;-73
2022/10/17 06:03:47;;;;;;;9.97;7.07;;;;;;;14.88;100.00;101510.25;5275764;28;20032;-73
2022/10/17 06:06:18;;;;;;;8.87;6.93;;;;;;;14.90;100.00;101516.28;5275702;28;20029;-73
2022/10/17 06:08:50;;;;;;;8.47;6.77;;;;;;;14.93;100.00;101512.59;5277951;28;20101;-73
2022/10/17 06:11:21;;;;;;;12.00;7.13;;;;;;;15.01;100.00;101520.81;5257448;28;20045;-73
2022/10/17 06:13:52;;;;;;;14.33;6.57;;;;;;;15.02;100.00;101505.84;5274686;28;20059;-73
2022/10/17 06:16:24;;;;;;;14.90;6.67;;;;;;;15.04;100.00;101519.78;5272963;28;20029;-73
2022/10/17 06:18:55;;;;;;;10.93;6.80;;;;;;;15.06;100.00;101528.44;5275923;28;20024;-73
2022/10/17 06:21:27;;;;;;;14.70;7.40;;;;;;;15.04;100.00;101511.84;5276029;28;20032;-72
2022/10/17 06:23:58;;;;;;;8.80;7.33;;;;;;;15.11;100.00;101521.03;5273992;28;20040;-72
2022/10/17 06:26:30;;;;;;;9.80;6.60;;;;;;;15.10;100.00;101519.34;5275549;28;20085;-73
2022/10/17 06:29:01;;;;;;;11.10;6.33;;;;;;;15.09;100.00;101522.94;5256081;28;20780;-73
2022/10/17 06:31:32;;;;;;;14.73;7.33;;;;;;;15.16;100.00;101532.13;5275852;28;20115;-73
2022/10/17 06:34:04;;;;;;;9.40;6.73;;;;;;;15.15;100.00;101532.25;5275491;28;20077;-72
2022/10/17 06:36:35;;;;;;;9.10;6.27;;;;;;;15.17;100.00;101530.34;5257664;28;20025;-72
2022/10/17 06:39:06;;;;;;;11.27;6.20;;;;;;;15.19;100.00;101529.28;5254519;28;20035;-72
2022/10/17 06:41:40;;;;;;;8.97;6.03;;;;;;;15.27;100.00;101530.53;5275440;28;20025;-73
2022/10/17 06:44:11;;;;;;;16.73;7.27;;;;;;;15.17;100.00;101530.34;5278022;28;20044;-72
2022/10/17 06:46:42;;;;;;;11.77;6.87;;;;;;;15.30;100.00;101538.25;5280293;28;20024;-73
2022/10/17 06:49:14;;;;;;;10.63;7.17;;;;;;;15.31;100.00;101553.13;5278164;28;20710;-72
2022/10/17 06:51:45;;;;;;;9.70;6.80;;;;;;;15.29;100.00;101552.41;5259520;28;20036;-73
2022/10/17 06:54:16;;;;;;;9.03;6.60;;;;;;;15.32;100.00;101544.25;5274190;28;20058;-78
2022/10/17 06:56:47;;;;;;;12.17;6.30;;;;;;;15.37;100.00;101552.72;5273212;28;20033;-70
2022/10/17 06:59:19;;;;;;;8.37;6.03;;;;;;;15.40;100.00;101546.34;5276809;28;20103;-73
2022/10/17 07:01:50;;;;;;;10.60;6.40;;;;;;;15.46;100.00;101540.66;5291599;28;20696;-74
2022/10/17 07:04:21;;;;;;;7.70;6.90;;;;;;;15.48;100.00;101544.88;5276255;28;20020;-74
2022/10/17 07:06:53;;;;;;;8.33;5.90;;;;;;;15.53;100.00;101549.00;5293426;28;20059;-73
2022/10/17 07:09:25;;;;;;;10.47;5.77;;;;;;;15.58;100.00;101557.44;5282814;28;20036;-73
2022/10/17 07:11:57;;;;;;;12.90;6.33;;;;;;;15.41;100.00;101554.16;5278927;28;20059;-74
2022/10/17 07:14:30;;;;;;;9.70;6.00;;;;;;;15.45;100.00;101549.53;5271301;28;20049;-73
2022/10/17 07:17:02;;;;;;;10.70;6.13;;;;;;;15.46;100.00;101559.97;5275078;28;20693;-72
2022/10/17 07:19:33;;;;;;;9.07;5.73;;;;;;;15.51;100.00;101556.19;5277140;28;20056;-74
2022/10/17 07:22:04;;;;;;;9.47;5.63;;;;;;;15.54;100.00;101555.97;5279068;28;20119;-74
2022/10/17 07:24:36;;;;;;;10.93;5.80;;;;;;;15.60;100.00;101566.94;5254512;28;20029;-73
2022/10/17 07:27:07;;;;;;;8.20;5.47;;;;;;;15.63;100.00;101571.16;5269125;28;20639;-72
2022/10/17 07:29:38;;;;;;;14.37;6.13;;;;;;;15.70;100.00;101567.16;5273166;28;20025;-73
2022/10/17 07:32:10;;;;;;;6.30;4.80;;;;;;;15.66;100.00;101562.16;5275351;28;20031;-72
2022/10/17 07:34:41;;;;;;;7.70;5.13;;;;;;;15.62;100.00;101582.69;5255473;28;20017;-72
2022/10/17 07:37:12;;;;;;;8.77;5.77;;;;;;;15.69;100.00;101615.59;5278757;28;20490;-72
2022/10/17 07:39:44;;;;;;;11.27;5.90;;;;;;;15.66;100.00;101633.47;5255774;28;20114;-72
2022/10/17 07:42:15;;;;;;;7.33;4.90;;;;;;;15.80;100.00;101661.56;5271804;28;20125;-72
2022/10/17 07:44:46;;;;;;;10.90;5.30;;;;;;;15.73;100.00;101680.47;5282904;28;20795;-72
2022/10/17 07:47:18;;;;;;;7.03;5.00;;;;;;;15.70;100.00;101691.25;5281581;28;20036;-72
2022/10/17 07:49:49;;;;;;;5.50;4.87;;;;;;;15.70;100.00;101704.47;5254529;28;20111;-72
2022/10/17 07:52:20;;;;;;;9.33;5.53;;;;;;;15.75;100.00;101698.00;5271374;28;20048;-73
2022/10/17 07:54:51;;;;;;;8.97;5.43;;;;;;;15.80;100.00;101704.66;5272487;28;20157;-73
2022/10/17 07:57:23;;;;;;;10.43;5.60;;;;;;;15.69;100.00;101709.84;5280102;28;20039;-73
2022/10/17 07:59:54;;;;;;;12.77;5.70;;;;;;;15.65;100.00;101711.84;5273313;28;20031;-72
2022/10/17 08:02:26;;;;;;;6.70;5.53;;;;;;;15.72;100.00;101715.78;5275254;28;20103;-73
2022/10/17 08:04:57;;;;;;;9.37;5.20;;;;;;;15.77;100.00;101704.03;5284789;28;20059;-71
2022/10/17 08:07:29;;;;;;;8.67;5.20;;;;;;;15.77;100.00;101709.31;5271733;28;20029;-76
2022/10/17 08:10:00;;;;;;;7.77;6.00;;;;;;;15.75;100.00;101712.06;5258819;28;20055;-72
2022/10/17 08:12:33;;;;;;;12.63;5.57;;;;;;;15.72;100.00;101710.50;5271779;28;20052;-72
2022/10/17 08:15:06;;;;;;;6.87;5.37;;;;;;;15.69;100.00;101710.66;5282341;28;20024;-73
2022/10/17 08:17:40;;;;;;;9.73;5.73;;;;;;;15.78;100.00;101737.44;5277170;28;20051;-73
2022/10/17 08:20:11;;;;;;;7.53;5.60;;;;;;;15.80;100.00;101756.63;5243277;28;20119;-73
2022/10/17 08:22:50;;;;;;;15.07;6.97;;;;;;;15.79;100.00;101784.00;5279803;28;20107;-74
2022/10/17 08:25:22;;;;;;;9.87;5.63;;;;;;;15.76;100.00;101776.28;5288601;28;20068;-73
2022/10/17 08:27:53;;;;;;;11.80;6.87;;;;;;;15.71;100.00;101777.44;5280143;28;20052;-73
2022/10/17 08:30:25;;;;;;;8.57;6.47;;;;;;;15.76;100.00;101771.84;5276969;28;20090;-73
2022/10/17 08:32:56;;;;;;;12.27;6.10;;;;;;;15.76;100.00;101773.66;5282679;28;20042;-73
2022/10/17 08:35:27;;;;;;;9.33;6.63;;;;;;;15.66;100.00;101774.25;5277112;28;20032;-73
2022/10/17 08:38:02;;;;;;;13.73;6.47;;;;;;;15.75;100.00;101777.22;5276638;28;20033;-73
2022/10/17 08:40:34;;;;;;;8.45;6.05;;;;;;;15.71;100.00;101772.16;5282572;28;20024;-73
2022/10/17 08:43:11;;;;;;;14.20;5.87;;;;;;;15.76;100.00;101781.56;5276969;28;20029;-72
2022/10/17 08:45:59;;;;;;;8.00;6.60;;;;;;;15.81;100.00;101777.66;5277412;28;20033;-73
2022/10/17 08:48:33;;;;;;;10.90;5.93;;;;;;;15.77;100.00;101770.91;5252182;28;20034;-73
2022/10/17 08:51:16;;;;;;;9.85;6.70;;;;;;;15.72;100.00;101767.72;5276611;28;20101;-73
2022/10/17 08:53:57;;;;;;;9.77;6.23;;;;;;;15.69;100.00;101757.38;5253307;28;20031;-73
2022/10/17 08:56:42;;;;;;;10.33;6.53;;;;;;;15.74;100.00;101765.84;5281296;28;20029;-72
2022/10/17 08:59:29;;;;;;;10.50;6.77;;;;;;;15.75;100.00;101761.38;5266150;28;20032;-73
2022/10/17 09:02:26;;;;;;;13.60;7.10;;;;;;;15.75;100.00;101758.75;5258712;28;20021;-73
2022/10/17 09:05:25;;;;;;;12.93;6.83;;;;;;;15.79;100.00;101771.66;5276730;28;20477;-73
2022/10/17 09:08:21;;;;;;;9.97;6.73;;;;;;;15.77;100.00;101780.63;5276522;28;20066;-72
2022/10/17 09:10:57;;;;;;;10.90;7.27;;;;;;;15.78;100.00;101795.53;5258647;28;20037;-73
2022/10/17 09:13:44;;;;;;;9.30;6.90;;;;;;;15.74;100.00;101808.09;5255875;28;20025;-73
2022/10/17 09:16:15;;;;;;;11.07;7.43;;;;;;;15.71;100.00;101832.91;5276325;28;20081;-73
2022/10/17 09:18:58;;;;;;;16.00;7.80;;;;;;;15.72;100.00;101826.69;5247350;28;20483;-73
2022/10/17 09:21:43;;;;;;;13.13;8.40;;;;;;;15.79;100.00;101844.75;5274455;28;20040;-72
2022/10/17 09:24:21;;;;;;;16.10;8.87;;;;;;;15.70;100.00;101833.00;5253783;28;20071;-73
2022/10/17 09:26:53;;;;;;;16.30;8.67;;;;;;;15.70;100.00;101812.72;5273281;28;20046;-72
2022/10/17 09:29:25;;;;;;;12.20;7.60;;;;;;;15.72;100.00;101773.88;5275563;28;20032;-72
2022/10/17 09:32:07;;;;;;;13.03;8.37;;;;;;;15.72;100.00;101742.19;5272684;28;20028;-72
2022/10/17 09:34:38;;;;;;;15.50;8.43;;;;;;;15.70;100.00;101737.94;5275675;28;20020;-72
2022/10/17 09:37:14;;;;;;;12.57;7.73;;;;;;;15.72;100.00;101742.19;5276087;28;20074;-72
2022/10/17 09:39:45;;;;;;;10.63;7.97;;;;;;;15.73;100.00;101757.06;5266989;28;21569;-71
2022/10/17 09:42:25;;;;;;;9.23;7.97;;;;;;;15.80;100.00;101777.75;5273484;28;20060;-72
2022/10/17 09:45:14;;;;;;;14.50;8.20;;;;;;;15.78;100.00;101787.59;5292805;28;20028;-71
2022/10/17 09:47:58;;;;;;;11.07;7.80;;;;;;;15.80;100.00;101801.53;5259288;28;20028;-71
2022/10/17 09:50:31;;;;;;;13.70;8.00;;;;;;;15.77;100.00;101802.59;5276120;28;20483;-71
2022/10/17 09:53:13;;;;;;;9.70;6.97;;;;;;;15.82;100.00;101791.72;5254737;28;20156;-71
2022/10/17 09:55:49;;;;;;;15.03;8.30;;;;;;;15.81;100.00;101787.41;5275521;28;20555;-73
2022/10/17 09:58:21;;;;;;;10.23;8.10;;;;;;;15.81;100.00;101776.84;5274452;28;20024;-73
2022/10/17 10:01:17;;;;;;;10.73;8.10;;;;;;;15.90;100.00;101764.81;5274945;28;20459;-72
2022/10/17 10:04:14;;;;;;;12.33;8.90;;;;;;;15.96;100.00;101777.56;5273330;28;20021;-72
2022/10/17 10:07:11;;;;;;;15.10;8.70;;;;;;;15.81;100.00;101753.06;5257402;28;20025;-74
2022/10/17 10:09:48;;;;;;;11.03;7.53;;;;;;;15.83;100.00;101770.47;5266000;28;20219;-74
2022/10/17 10:12:23;;;;;;;12.63;7.93;;;;;;;15.92;100.00;101790.16;5271738;28;20024;-73
2022/10/17 10:14:56;;;;;;;11.13;7.83;;;;;;;15.91;100.00;101800.81;5257081;28;20459;-74
2022/10/17 10:17:42;;;;;;;10.13;7.10;;;;;;;15.96;100.00;101799.56;5275664;28;20360;-73
2022/10/17 10:20:35;;;;;;;9.43;6.67;;;;;;;15.95;100.00;101805.78;5256895;28;20024;-73
2022/10/17 10:23:11;;;;;;;9.87;6.83;;;;;;;15.95;100.00;101826.91;5288075;28;20478;-74
2022/10/17 10:25:53;;;;;;;9.53;6.73;;;;;;;15.97;100.00;101830.31;5256486;28;20115;-76
2022/10/17 10:28:30;;;;;;;9.60;5.93;;;;;;;16.01;100.00;101840.69;5274263;28;20032;-74
2022/10/17 10:31:05;;;;;;;9.33;6.90;;;;;;;15.99;100.00;101839.94;5274662;28;20560;-75
2022/10/17 10:33:42;;;;;;;8.60;6.37;;;;;;;16.01;100.00;101840.69;5272688;28;20027;-73
2022/10/17 10:36:13;;;;;;;10.13;6.67;;;;;;;16.00;100.00;101839.00;5275209;28;20032;-72
2022/10/17 10:38:55;;;;;;;8.67;6.17;;;;;;;16.02;100.00;101855.63;5274479;28;20024;-73
2022/10/17 10:41:26;;;;;;;13.70;7.13;;;;;;;16.08;100.00;101865.75;5257168;28;20372;-72
2022/10/17 10:43:58;;;;;;;13.60;5.83;;;;;;;16.03;100.00;101876.66;5271456;28;20048;-72
2022/10/17 10:46:29;;;;;;;9.47;5.70;;;;;;;16.04;100.00;101888.91;5274952;28;20042;-72
2022/10/17 10:49:02;;;;;;;11.43;6.40;;;;;;;16.00;100.00;101883.94;5274840;28;20025;-72
2022/10/17 10:51:46;;;;;;;6.53;5.73;;;;;;;16.14;100.00;101899.72;5256557;28;20024;-72
2022/10/17 10:54:44;;;;;;;9.97;6.00;;;;;;;16.09;100.00;101907.09;5271375;28;20033;-72
2022/10/17 10:57:35;;;;;;;11.73;5.63;;;;;;;15.97;100.00;101880.50;5267160;28;20064;-74
2022/10/17 11:00:18;;;;;;;7.13;5.13;;;;;;;16.10;100.00;101885.00;5241235;28;20103;-75
2022/10/17 11:02:58;;;;;;;10.40;5.67;;;;;;;16.09;100.00;101893.91;5271818;28;20166;-74
2022/10/17 11:05:40;;;;;;;7.57;5.90;;;;;;;16.11;100.00;101893.78;5274955;28;20111;-74
2022/10/17 11:08:22;;;;;;;7.27;5.67;;;;;;;16.16;100.00;101902.25;5268499;28;20025;-75
2022/10/17 11:11:22;;;;;;;10.47;6.27;;;;;;;16.16;100.00;101900.44;5280760;28;20448;-75
2022/10/17 11:14:26;;;;;;;8.53;6.47;;;;;;;16.24;100.00;101910.50;5286794;28;20709;-74
2022/10/17 11:17:08;;;;;;;8.80;6.10;;;;;;;16.20;100.00;101912.50;5229817;28;20033;-74
2022/10/17 11:19:45;;;;;;;10.30;6.40;;;;;;;16.21;100.00;101911.53;5272318;28;20039;-74
2022/10/17 11:22:24;;;;;;;11.87;7.00;;;;;;;16.19;100.00;101917.91;5272530;28;20734;-74
2022/10/17 11:25:12;;;;;;;10.63;7.20;;;;;;;16.24;100.00;101926.38;5267416;28;20490;-73
2022/10/17 11:27:43;;;;;;;9.70;6.63;;;;;;;16.19;100.00;101929.31;5273106;28;20436;-72
2022/10/17 11:30:16;;;;;;;11.23;6.83;;;;;;;16.21;100.00;101937.97;5274684;28;20121;-75
2022/10/17 11:32:59;;;;;;;9.20;7.23;;;;;;;16.26;100.00;101939.47;5271245;28;20051;-73
2022/10/17 11:35:35;;;;;;;12.57;6.80;;;;;;;16.26;100.00;101939.47;5274396;28;20028;-73
2022/10/17 11:38:09;;;;;;;10.53;7.13;;;;;;;16.26;100.00;101945.63;5274103;28;20020;-72
2022/10/17 11:40:44;;;;;;;9.10;7.90;;;;;;;16.26;100.00;101942.97;5274010;28;20057;-73
2022/10/17 11:43:27;;;;;;;12.50;7.70;;;;;;;16.28;100.00;101948.16;5271357;28;20383;-74
2022/10/17 11:46:05;;;;;;;11.87;8.33;;;;;;;16.26;100.00;101950.06;5266547;28;20119;-75
2022/10/17 11:48:43;;;;;;;8.93;8.00;;;;;;;16.29;100.00;101949.84;5274490;28;20518;-72
2022/10/17 11:51:15;;;;;;;10.97;8.03;;;;;;;16.29;100.00;101957.78;5274409;28;20059;-72